Creamridge, New Jersey
Current Conditions -  °F | °C
As of 9:58 AM on Saturday 25 Oct 2014 (Local Time) from KWRI Reporting Station
Haze Haze  
Wind Chill: 57°   Ceiling: Unl
Heat Index: 57°   Visibility: 4mi
Dew Point: 38°   Wind: 7mph
Humidity: 49%   Direction: 290°WNW
Pressure: 29.87"   Gusts: NA
Location:  40.1405°N, 74.4965°W
Report Text: KWRI 251358Z AUTO 29006KT 4SM HZ CLR 14/04 A2987 RMK AO2 SLP118 T01400035 $
Loading
Personal Weather Stations






























Interactive Weather Map
Tropical Storm Tracking
New forecast layout! Learn more

10-Day Weather Forecast

Advertisements
Track Severe Weather on mobile